createdAt,value
2022-08-26T00:00:03.826Z,77
2022-08-26T00:20:03.181Z,77
2022-08-26T00:40:05.545Z,78
2022-08-26T01:00:03.006Z,78
2022-08-26T01:20:03.166Z,79
2022-08-26T01:40:03.004Z,79
2022-08-26T02:00:02.438Z,79
2022-08-26T02:20:03.097Z,79
2022-08-26T02:40:03.260Z,79
2022-08-26T03:00:02.955Z,79
2022-08-26T03:20:02.676Z,80
2022-08-26T03:40:03.087Z,80
2022-08-26T04:00:02.752Z,81
2022-08-26T04:20:02.525Z,82
2022-08-26T04:40:04.137Z,81
2022-08-26T05:00:03.475Z,82
2022-08-26T05:20:03.924Z,82
2022-08-26T05:40:02.435Z,83
2022-08-26T06:00:02.795Z,83
2022-08-26T06:20:02.495Z,82
2022-08-26T06:40:03.953Z,80
2022-08-26T07:00:02.566Z,77
2022-08-26T07:20:02.443Z,74
2022-08-26T07:40:03.467Z,70
2022-08-26T08:00:02.812Z,67
2022-08-26T08:20:04.341Z,63
2022-08-26T08:40:02.886Z,60
2022-08-26T09:00:02.662Z,55
2022-08-26T09:20:03.125Z,51
2022-08-26T09:40:02.708Z,50
2022-08-26T10:00:03.364Z,51
2022-08-26T10:20:03.101Z,50
2022-08-26T10:40:02.780Z,48
2022-08-26T11:00:04.360Z,47
2022-08-26T11:20:13.209Z,49
2022-08-26T11:40:04.145Z,49
2022-08-26T12:00:02.785Z,49
2022-08-26T12:20:02.669Z,50
2022-08-26T12:40:03.497Z,51
2022-08-26T13:00:03.219Z,51
2022-08-26T13:20:04.832Z,58
2022-08-26T13:40:04.406Z,65
2022-08-26T14:00:03.326Z,69
2022-08-26T14:20:03.538Z,69
2022-08-26T14:40:04.429Z,69
2022-08-26T15:00:04.106Z,71
2022-08-26T15:20:03.612Z,73
2022-08-26T15:40:04.875Z,71
2022-08-26T16:00:03.358Z,73
2022-08-26T16:20:02.699Z,75
2022-08-26T17:00:04.313Z,77
2022-08-26T17:20:02.675Z,78
2022-08-26T17:40:04.924Z,78
2022-08-26T18:00:03.815Z,78
2022-08-26T18:20:03.843Z,79
2022-08-26T18:40:08.781Z,80
2022-08-26T19:00:07.766Z,80
2022-08-26T19:20:03.339Z,81
2022-08-26T19:40:08.843Z,81
2022-08-26T20:00:02.219Z,81
2022-08-26T20:20:03.190Z,81
2022-08-26T20:40:02.700Z,81
2022-08-26T21:00:03.234Z,82
2022-08-26T21:20:02.991Z,83
2022-08-26T21:40:04.474Z,83
2022-08-26T22:00:04.957Z,83
2022-08-26T22:20:03.632Z,82
2022-08-26T22:40:03.427Z,83
2022-08-26T23:00:02.919Z,83
2022-08-26T23:20:03.417Z,83
2022-08-26T23:40:03.414Z,83
